Аэропорт: Черновцы. Черновцы

ICAO: UKLN

METAR:
2018/11/19 08:00
UKLN 190800Z 10004MPS 0600 0500SE R15/0900N +SHSN VV002 M01/M01 Q1020 R15/590336 NOSIG
METAR:
2018/06/09 15:36
TAF 
      AMD TAF 
      AMD UKLN 091529Z 0915/1024 04005MPS 9999 BKN033CB TX28/0916Z TN17/0924Z 
      TEMPO 0916/0921 VRB09G14MPS 2100 -TSRA BKN007 BKN020CB